createdAt,value
2018-09-27T00:00:21.626Z,9.90
2018-09-27T00:02:50.003Z,9.90
2018-09-27T00:05:18.391Z,9.80
2018-09-27T00:07:46.866Z,9.80
2018-09-27T00:10:15.347Z,9.80
2018-09-27T00:12:43.799Z,9.80
2018-09-27T00:15:12.318Z,9.70
2018-09-27T00:17:40.672Z,9.70
2018-09-27T00:20:09.192Z,9.80
2018-09-27T00:22:37.638Z,9.70
2018-09-27T00:25:06.150Z,9.80
2018-09-27T00:27:34.588Z,9.70
2018-09-27T00:30:03.223Z,9.80
2018-09-27T00:32:31.592Z,9.70
2018-09-27T00:35:00.206Z,9.60
2018-09-27T00:37:28.644Z,9.60
2018-09-27T00:39:57.143Z,9.70
2018-09-27T00:42:25.491Z,9.80
2018-09-27T00:44:53.885Z,9.70
2018-09-27T00:47:22.272Z,9.60
2018-09-27T00:49:50.656Z,9.60
2018-09-27T00:52:19.030Z,9.60
2018-09-27T00:54:47.432Z,9.60
2018-09-27T00:57:16.013Z,9.50
2018-09-27T00:59:44.584Z,9.40
2018-09-27T01:02:12.996Z,9.40
2018-09-27T01:04:41.485Z,9.40
2018-09-27T01:07:09.930Z,9.40
2018-09-27T01:09:38.354Z,9.40
2018-09-27T01:12:06.840Z,9.40
2018-09-27T01:14:35.395Z,9.30
2018-09-27T01:17:03.793Z,9.30
2018-09-27T01:19:32.168Z,9.30
2018-09-27T01:22:00.652Z,9.30
2018-09-27T01:24:29.144Z,9.30
2018-09-27T01:26:57.510Z,9.30
2018-09-27T01:29:25.897Z,9.40
2018-09-27T01:31:54.268Z,9.40
2018-09-27T01:34:22.754Z,9.40
2018-09-27T01:36:51.135Z,9.40
2018-09-27T01:39:19.641Z,9.30
2018-09-27T01:41:47.994Z,9.30
2018-09-27T01:44:16.375Z,9.30
2018-09-27T01:46:44.728Z,9.20
2018-09-27T01:49:13.356Z,9.20
2018-09-27T01:51:41.823Z,9.00
2018-09-27T01:54:10.306Z,9.00
2018-09-27T01:56:39.058Z,9.10
2018-09-27T01:59:07.775Z,9.10
2018-09-27T02:01:36.159Z,9.10
2018-09-27T02:04:04.607Z,9.20
2018-09-27T02:06:32.984Z,9.10
2018-09-27T02:09:01.299Z,9.00
2018-09-27T02:11:29.683Z,9.00
2018-09-27T02:13:58.131Z,8.90
2018-09-27T02:16:26.547Z,8.80
2018-09-27T02:18:54.994Z,8.80
2018-09-27T02:21:23.298Z,8.80
2018-09-27T02:23:51.698Z,8.90
2018-09-27T02:26:20.063Z,8.80
2018-09-27T02:28:48.443Z,8.70
2018-09-27T02:31:16.928Z,8.60
2018-09-27T02:33:45.278Z,8.60
2018-09-27T02:36:13.895Z,8.70
2018-09-27T02:38:42.345Z,8.70
2018-09-27T02:41:10.756Z,8.80
2018-09-27T02:43:39.121Z,8.80
2018-09-27T02:46:07.517Z,8.70
2018-09-27T02:48:35.999Z,8.80
2018-09-27T02:51:04.397Z,8.80
2018-09-27T02:53:32.856Z,8.80
2018-09-27T02:56:01.349Z,8.70
2018-09-27T02:58:29.835Z,8.70
2018-09-27T03:00:58.223Z,8.70
2018-09-27T03:03:26.592Z,8.60
2018-09-27T03:05:54.972Z,8.60
2018-09-27T03:08:23.737Z,8.60
2018-09-27T03:10:52.236Z,8.60
2018-09-27T03:13:20.623Z,8.60
2018-09-27T03:15:49.108Z,8.60
2018-09-27T03:18:17.565Z,8.60
2018-09-27T03:20:46.090Z,8.60
2018-09-27T03:23:14.451Z,8.60
2018-09-27T03:25:42.817Z,8.60
2018-09-27T03:28:11.308Z,8.50
2018-09-27T03:30:39.712Z,8.40
2018-09-27T03:33:08.277Z,8.50
2018-09-27T03:35:36.660Z,8.40
2018-09-27T03:38:05.120Z,8.40
2018-09-27T03:40:33.570Z,8.40
2018-09-27T03:43:01.981Z,8.50
2018-09-27T03:45:30.405Z,8.50
2018-09-27T03:47:58.784Z,8.30
2018-09-27T03:50:27.147Z,8.30
2018-09-27T03:52:55.540Z,8.30
2018-09-27T03:55:23.922Z,8.30
2018-09-27T03:57:52.393Z,8.30
2018-09-27T04:00:20.866Z,8.40
2018-09-27T04:02:49.362Z,8.30
2018-09-27T04:05:17.814Z,8.40
2018-09-27T04:07:46.415Z,8.30
2018-09-27T04:10:14.930Z,8.30
2018-09-27T04:12:43.430Z,8.20
2018-09-27T04:15:11.802Z,8.20
2018-09-27T04:17:40.331Z,8.20
2018-09-27T04:20:08.964Z,8.20
2018-09-27T04:22:37.428Z,8.20
2018-09-27T04:25:06.112Z,8.20
2018-09-27T04:27:34.522Z,8.20
2018-09-27T04:30:02.987Z,8.30
2018-09-27T04:32:31.347Z,8.30
2018-09-27T04:34:59.734Z,8.20
2018-09-27T04:37:28.231Z,8.20
2018-09-27T04:39:56.836Z,8.20
2018-09-27T04:42:25.195Z,8.10
2018-09-27T04:44:53.571Z,8.10
2018-09-27T04:47:22.072Z,8.10
2018-09-27T04:49:50.641Z,8.10
2018-09-27T04:52:19.141Z,8.20
2018-09-27T04:54:47.618Z,8.20
2018-09-27T04:57:16.183Z,8.30
2018-09-27T04:59:44.578Z,8.20
2018-09-27T05:02:13.058Z,8.20
2018-09-27T05:04:41.561Z,8.30
2018-09-27T05:07:10.025Z,8.20
2018-09-27T05:09:38.515Z,8.10
2018-09-27T05:12:06.973Z,8.20
2018-09-27T05:14:35.396Z,8.10
2018-09-27T05:17:03.883Z,8.10
2018-09-27T05:19:32.414Z,8.20
2018-09-27T05:22:00.822Z,8.10
2018-09-27T05:24:29.195Z,8.10
2018-09-27T05:26:57.664Z,8.10
2018-09-27T05:29:26.169Z,8.10
2018-09-27T05:31:54.546Z,8.10
2018-09-27T05:34:22.998Z,8.10
2018-09-27T05:36:52.038Z,8.10
2018-09-27T05:39:20.504Z,8.20
2018-09-27T05:41:48.903Z,8.20
2018-09-27T05:44:17.386Z,8.20
2018-09-27T05:46:45.771Z,8.10
2018-09-27T05:49:14.256Z,8.10
2018-09-27T05:51:43.023Z,8.20
2018-09-27T05:54:11.436Z,8.20
2018-09-27T05:56:40.525Z,8.10
2018-09-27T05:59:09.287Z,8.20
2018-09-27T06:01:37.743Z,8.20
2018-09-27T06:04:06.155Z,8.20
2018-09-27T06:06:35.691Z,8.30
2018-09-27T06:09:11.932Z,8.40
2018-09-27T06:11:40.474Z,8.40
2018-09-27T06:14:09.226Z,8.50
2018-09-27T06:16:39.602Z,8.60
2018-09-27T06:19:08.613Z,8.70
2018-09-27T06:21:37.276Z,8.90
2018-09-27T06:24:05.602Z,8.90
2018-09-27T06:26:33.959Z,8.80
2018-09-27T06:29:02.345Z,9.00
2018-09-27T06:31:30.836Z,9.00
2018-09-27T06:33:59.210Z,9.00
2018-09-27T06:36:27.687Z,9.10
2018-09-27T06:38:56.069Z,9.20
2018-09-27T06:41:24.489Z,9.30
2018-09-27T06:43:52.952Z,9.30
2018-09-27T06:46:21.249Z,9.50
2018-09-27T06:48:49.909Z,9.50
2018-09-27T06:51:18.214Z,9.60
2018-09-27T06:53:46.595Z,9.70
2018-09-27T06:56:14.966Z,9.70
2018-09-27T06:58:43.215Z,9.80
2018-09-27T07:01:11.538Z,10.00
2018-09-27T07:03:40.048Z,10.20
2018-09-27T07:06:08.393Z,10.20
2018-09-27T07:08:37.093Z,10.40
2018-09-27T07:11:05.435Z,10.60
2018-09-27T07:13:33.822Z,10.70
2018-09-27T07:16:02.203Z,10.80
2018-09-27T07:18:31.057Z,11.00
2018-09-27T07:20:59.376Z,11.30
2018-09-27T07:23:27.790Z,11.40
2018-09-27T07:25:56.072Z,11.50
2018-09-27T07:28:24.368Z,11.50
2018-09-27T07:30:52.707Z,11.60
2018-09-27T07:33:21.150Z,11.70
2018-09-27T07:35:49.474Z,11.90
2018-09-27T07:38:17.917Z,11.90
2018-09-27T07:40:46.538Z,12.00
2018-09-27T07:43:14.828Z,12.10
2018-09-27T07:45:43.502Z,12.20
2018-09-27T07:48:11.789Z,12.10
2018-09-27T07:50:40.949Z,12.20
2018-09-27T07:53:09.257Z,12.20
2018-09-27T07:55:37.592Z,12.40
2018-09-27T07:58:05.923Z,12.60
2018-09-27T08:00:34.301Z,12.80
2018-09-27T08:03:02.948Z,12.90
2018-09-27T08:05:31.201Z,13.00
2018-09-27T08:07:59.521Z,13.00
2018-09-27T08:10:27.868Z,13.00
2018-09-27T08:12:56.225Z,13.20
2018-09-27T08:15:24.530Z,13.30
2018-09-27T08:17:52.854Z,13.40
2018-09-27T08:20:21.224Z,13.40
2018-09-27T08:22:49.515Z,13.40
2018-09-27T08:25:17.810Z,13.50
2018-09-27T08:27:46.471Z,13.50
2018-09-27T08:30:14.869Z,13.70
2018-09-27T08:32:43.229Z,13.80
2018-09-27T08:35:11.522Z,14.10
2018-09-27T08:37:40.341Z,14.30
2018-09-27T08:40:09.753Z,14.40
2018-09-27T08:42:38.246Z,14.50
2018-09-27T08:45:06.787Z,14.80
2018-09-27T08:47:34.894Z,15.10
2018-09-27T08:50:03.227Z,15.10
2018-09-27T08:52:31.577Z,15.20
2018-09-27T08:54:59.944Z,15.30
2018-09-27T08:57:28.249Z,15.60
2018-09-27T08:59:56.542Z,15.70
2018-09-27T09:02:24.831Z,15.90
2018-09-27T09:04:53.141Z,16.00
2018-09-27T09:07:21.464Z,16.10
2018-09-27T09:09:49.735Z,16.40
2018-09-27T09:12:18.112Z,16.50
2018-09-27T09:14:46.264Z,16.50
2018-09-27T09:17:14.535Z,16.60
2018-09-27T09:19:42.862Z,16.80
2018-09-27T09:22:11.095Z,17.00
2018-09-27T09:24:39.434Z,16.90
2018-09-27T09:27:07.647Z,16.90
2018-09-27T09:29:35.988Z,17.00
2018-09-27T09:32:04.298Z,17.10
2018-09-27T09:34:32.679Z,17.30
2018-09-27T09:37:00.987Z,17.60
2018-09-27T09:39:29.408Z,17.70
2018-09-27T09:41:58.272Z,17.70
2018-09-27T09:44:26.575Z,17.70
2018-09-27T09:46:54.960Z,17.80
2018-09-27T09:49:23.420Z,18.10
2018-09-27T09:51:51.773Z,18.30
2018-09-27T09:54:20.020Z,18.20
2018-09-27T09:56:48.296Z,18.30
2018-09-27T09:59:16.589Z,18.30
2018-09-27T10:01:44.931Z,18.30
2018-09-27T10:04:13.227Z,18.50
2018-09-27T10:06:41.488Z,18.80
2018-09-27T10:09:10.494Z,18.70
2018-09-27T10:11:38.818Z,18.70
2018-09-27T10:14:07.215Z,18.60
2018-09-27T10:16:36.086Z,18.70
2018-09-27T10:19:04.406Z,18.90
2018-09-27T10:21:32.759Z,18.90
2018-09-27T10:24:01.353Z,19.00
2018-09-27T10:26:29.724Z,19.20
2018-09-27T10:28:58.168Z,19.40
2018-09-27T10:31:26.515Z,19.30
2018-09-27T10:33:54.961Z,19.50
2018-09-27T10:36:24.433Z,19.60
2018-09-27T10:38:53.353Z,19.70
2018-09-27T10:41:21.769Z,19.70
2018-09-27T10:43:50.136Z,19.90
2018-09-27T10:46:18.486Z,19.90
2018-09-27T10:48:46.975Z,20.00
2018-09-27T10:51:15.483Z,20.30
2018-09-27T10:53:43.795Z,20.30
2018-09-27T10:56:12.146Z,20.30
2018-09-27T10:58:40.510Z,20.60
2018-09-27T11:01:09.222Z,20.60
2018-09-27T11:03:37.523Z,20.70
2018-09-27T11:06:06.833Z,20.80
2018-09-27T11:08:35.232Z,20.80
2018-09-27T11:11:03.698Z,20.80
2018-09-27T11:13:31.979Z,20.70
2018-09-27T11:16:00.311Z,20.90
2018-09-27T11:18:34.205Z,21.00
2018-09-27T11:21:02.656Z,20.80
2018-09-27T11:23:30.933Z,20.90
2018-09-27T11:25:59.270Z,21.00
2018-09-27T11:28:31.984Z,21.30
2018-09-27T11:31:05.628Z,21.30
2018-09-27T11:33:33.931Z,21.30
2018-09-27T11:36:02.310Z,21.40
2018-09-27T11:38:30.839Z,21.40
2018-09-27T11:40:59.186Z,21.30
2018-09-27T11:43:27.673Z,21.30
2018-09-27T11:45:55.954Z,21.40
2018-09-27T11:48:24.255Z,21.60
2018-09-27T11:50:52.988Z,21.60
2018-09-27T11:53:21.413Z,21.80
2018-09-27T11:55:50.624Z,21.80
2018-09-27T11:58:19.511Z,21.80
2018-09-27T12:00:48.165Z,21.80
2018-09-27T12:03:18.731Z,21.50
2018-09-27T12:05:47.621Z,21.70
2018-09-27T12:08:15.939Z,21.90
2018-09-27T12:10:44.289Z,21.90
2018-09-27T12:13:12.667Z,22.30
2018-09-27T12:15:40.923Z,22.50
2018-09-27T12:18:09.201Z,22.60
2018-09-27T12:20:37.551Z,23.10
2018-09-27T12:23:05.868Z,23.10
2018-09-27T12:25:34.133Z,23.10
2018-09-27T12:28:02.412Z,23.00
2018-09-27T12:30:30.690Z,23.10
2018-09-27T12:32:58.975Z,23.30
2018-09-27T12:35:27.274Z,23.20
2018-09-27T12:37:55.643Z,23.10
2018-09-27T12:40:24.116Z,23.20
2018-09-27T12:42:52.361Z,23.30
2018-09-27T12:45:20.672Z,23.40
2018-09-27T12:47:49.300Z,23.30
2018-09-27T12:50:17.913Z,23.30
2018-09-27T12:52:46.574Z,23.40
2018-09-27T12:55:15.767Z,23.50
2018-09-27T12:57:44.267Z,23.60
2018-09-27T13:00:13.219Z,23.70
2018-09-27T13:02:42.357Z,23.80
2018-09-27T13:05:10.752Z,23.50
2018-09-27T13:07:39.340Z,23.60
2018-09-27T13:10:08.153Z,23.70
2018-09-27T13:12:36.698Z,23.70
2018-09-27T13:15:05.632Z,23.90
2018-09-27T13:17:34.336Z,24.00
2018-09-27T13:20:03.090Z,24.00
2018-09-27T13:22:31.348Z,24.10
2018-09-27T13:24:59.834Z,24.20
2018-09-27T13:27:28.476Z,24.60
2018-09-27T13:29:57.326Z,24.30
2018-09-27T13:32:25.786Z,24.10
2018-09-27T13:34:54.259Z,24.00
2018-09-27T13:37:22.862Z,23.70
2018-09-27T13:39:51.478Z,23.80
2018-09-27T13:42:20.113Z,24.00
2018-09-27T13:44:48.575Z,24.20
2018-09-27T13:47:17.188Z,24.30
2018-09-27T13:49:45.782Z,24.20
2018-09-27T13:52:14.585Z,24.20
2018-09-27T13:54:43.249Z,24.60
2018-09-27T13:57:12.002Z,24.50
2018-09-27T13:59:40.722Z,24.60
2018-09-27T14:02:09.528Z,24.90
2018-09-27T14:04:38.204Z,24.90
2018-09-27T14:07:06.676Z,24.60
2018-09-27T14:09:35.247Z,24.60
2018-09-27T14:12:03.762Z,24.50
2018-09-27T14:14:32.346Z,24.60
2018-09-27T14:17:00.961Z,24.50
2018-09-27T14:19:29.994Z,24.80
2018-09-27T14:21:58.519Z,24.80
2018-09-27T14:24:27.154Z,24.80
2018-09-27T14:26:58.290Z,24.90
2018-09-27T14:29:27.795Z,25.00
2018-09-27T14:32:00.156Z,25.30
2018-09-27T14:34:29.337Z,25.60
2018-09-27T14:36:58.266Z,25.70
2018-09-27T14:39:37.576Z,25.50
2018-09-27T14:42:14.453Z,25.50
2018-09-27T14:57:52.809Z,25.60
2018-09-27T15:00:21.950Z,25.70
2018-09-27T15:02:51.250Z,25.60
2018-09-27T15:05:20.756Z,25.80
2018-09-27T15:07:55.149Z,26.00
2018-09-27T15:10:24.657Z,26.10
2018-09-27T15:12:58.801Z,26.10
2018-09-27T15:15:33.522Z,26.00
2018-09-27T15:18:09.171Z,26.00
2018-09-27T15:24:00.725Z,26.00
2018-09-27T15:26:30.250Z,26.10
2018-09-27T15:29:02.842Z,25.90
2018-09-27T15:31:32.617Z,26.00
2018-09-27T15:34:08.919Z,25.80
2018-09-27T15:36:42.766Z,25.90
2018-09-27T15:39:19.866Z,25.80
2018-09-27T15:41:50.013Z,25.80
2018-09-27T15:47:15.727Z,27.50
2018-09-27T15:49:46.911Z,28.00
2018-09-27T15:52:17.808Z,28.30
2018-09-27T15:54:47.529Z,28.90
2018-09-27T15:57:25.209Z,29.20
2018-09-27T16:00:04.246Z,29.90
2018-09-27T16:05:31.605Z,29.30
2018-09-27T16:08:02.461Z,28.90
2018-09-27T16:10:31.432Z,28.30
2018-09-27T16:13:03.912Z,27.00
2018-09-27T16:15:34.603Z,26.80
2018-09-27T16:18:03.794Z,26.10
2018-09-27T16:20:32.979Z,25.40
2018-09-27T16:23:02.322Z,25.30
2018-09-27T16:25:31.360Z,24.90
2018-09-27T16:28:01.253Z,24.60
2018-09-27T16:30:30.385Z,24.50
2018-09-27T16:33:00.505Z,24.10
2018-09-27T16:35:34.973Z,23.90
2018-09-27T16:38:04.528Z,23.90
2018-09-27T16:40:35.500Z,23.80
2018-09-27T16:43:08.068Z,23.60
2018-09-27T16:45:37.300Z,23.60
2018-09-27T16:48:06.265Z,23.40
2018-09-27T16:50:35.900Z,23.20
2018-09-27T16:53:08.682Z,23.30
2018-09-27T16:55:38.370Z,23.20
2018-09-27T16:58:08.034Z,23.00
2018-09-27T17:00:37.744Z,22.80
2018-09-27T17:03:07.803Z,22.60
2018-09-27T17:05:37.632Z,22.40
2018-09-27T17:10:50.816Z,22.00
2018-09-27T17:13:24.110Z,21.70
2018-09-27T17:15:53.860Z,21.50
2018-09-27T17:18:23.505Z,21.30
2018-09-27T17:20:52.560Z,21.10
2018-09-27T17:23:22.611Z,20.90
2018-09-27T17:25:51.784Z,20.70
2018-09-27T17:28:25.745Z,20.60
2018-09-27T17:30:55.053Z,20.50
2018-09-27T17:33:24.081Z,20.30
2018-09-27T17:35:52.929Z,20.10
2018-09-27T17:38:22.236Z,20.00
2018-09-27T17:40:51.737Z,19.80
2018-09-27T17:46:03.865Z,19.60
2018-09-27T17:51:20.465Z,19.30
2018-09-27T17:53:49.801Z,19.10
2018-09-27T17:56:20.441Z,18.90
2018-09-27T17:58:49.685Z,18.90
2018-09-27T18:01:18.377Z,18.80
2018-09-27T18:03:47.303Z,18.60
2018-09-27T18:06:16.160Z,18.60
2018-09-27T18:08:44.737Z,18.50
2018-09-27T18:11:13.312Z,18.30
2018-09-27T18:13:41.732Z,18.30
2018-09-27T18:16:10.285Z,18.30
2018-09-27T18:18:38.980Z,18.10
2018-09-27T18:21:07.450Z,18.00
2018-09-27T18:23:35.920Z,17.90
2018-09-27T18:26:04.324Z,17.70
2018-09-27T18:28:32.797Z,17.60
2018-09-27T18:31:01.295Z,17.50
2018-09-27T18:33:30.493Z,17.50
2018-09-27T18:35:59.067Z,17.40
2018-09-27T18:38:27.446Z,17.30
2018-09-27T18:40:55.931Z,17.20
2018-09-27T18:43:24.293Z,17.20
2018-09-27T18:45:52.692Z,17.10
2018-09-27T18:48:21.075Z,16.90
2018-09-27T18:50:49.519Z,16.90
2018-09-27T18:53:17.931Z,16.70
2018-09-27T18:55:46.320Z,16.60
2018-09-27T18:58:14.667Z,16.60
2018-09-27T19:00:43.087Z,16.50
2018-09-27T19:03:11.545Z,16.40
2018-09-27T19:05:39.930Z,16.40
2018-09-27T19:08:08.398Z,16.30
2018-09-27T19:10:37.212Z,16.20
2018-09-27T19:13:05.696Z,16.10
2018-09-27T19:15:34.263Z,16.20
2018-09-27T19:18:02.567Z,16.10
2018-09-27T19:20:31.372Z,16.00
2018-09-27T19:22:59.823Z,16.00
2018-09-27T19:25:28.248Z,15.90
2018-09-27T19:27:56.834Z,15.80
2018-09-27T19:30:25.367Z,15.80
2018-09-27T19:32:53.789Z,15.70
2018-09-27T19:35:22.143Z,15.70
2018-09-27T19:37:50.638Z,15.60
2018-09-27T19:40:19.316Z,15.50
2018-09-27T19:42:48.426Z,15.50
2018-09-27T19:45:16.999Z,15.50
2018-09-27T19:47:46.124Z,15.40
2018-09-27T19:50:15.323Z,15.20
2018-09-27T19:52:43.979Z,15.10
2018-09-27T19:55:13.151Z,15.10
2018-09-27T19:57:41.972Z,15.10
2018-09-27T20:00:11.605Z,15.00
2018-09-27T20:02:40.539Z,14.90
2018-09-27T20:05:09.619Z,14.90
2018-09-27T20:07:38.484Z,14.90
2018-09-27T20:10:08.104Z,14.90
2018-09-27T20:12:37.239Z,15.10
2018-09-27T20:15:06.719Z,15.00
2018-09-27T20:17:36.042Z,14.90
2018-09-27T20:20:05.177Z,14.70
2018-09-27T20:22:36.032Z,14.40
2018-09-27T20:25:05.583Z,14.40
2018-09-27T20:27:34.592Z,14.60
2018-09-27T20:30:03.831Z,14.40
2018-09-27T20:32:33.154Z,14.30
2018-09-27T20:35:02.178Z,14.40
2018-09-27T20:37:31.125Z,14.40
2018-09-27T20:40:00.500Z,14.30
2018-09-27T20:42:32.680Z,14.20
2018-09-27T20:45:02.422Z,14.00
2018-09-27T20:47:31.477Z,13.80
2018-09-27T20:50:00.485Z,13.80
2018-09-27T20:52:29.477Z,13.70
2018-09-27T20:54:58.343Z,13.70
2018-09-27T20:57:27.240Z,13.70
2018-09-27T20:59:56.239Z,13.70
2018-09-27T21:02:26.197Z,13.70
2018-09-27T21:04:55.486Z,13.70
2018-09-27T21:07:24.550Z,13.60
2018-09-27T21:12:46.459Z,13.60
2018-09-27T21:15:14.980Z,13.50
2018-09-27T21:18:14.340Z,13.50
2018-09-27T21:20:49.097Z,13.60
2018-09-27T21:26:13.848Z,13.50
2018-09-27T21:28:42.284Z,13.30
2018-09-27T21:31:11.329Z,13.50
2018-09-27T21:33:45.631Z,13.50
2018-09-27T21:36:14.245Z,13.50
2018-09-27T21:38:43.328Z,13.40
2018-09-27T21:54:20.034Z,13.30
2018-09-27T21:56:48.583Z,13.10
2018-09-27T21:59:22.640Z,13.10
2018-09-27T22:01:51.108Z,13.10
2018-09-27T22:04:20.161Z,13.10
2018-09-27T22:06:49.723Z,13.00
2018-09-27T22:09:18.401Z,12.90
2018-09-27T22:11:46.779Z,12.90
2018-09-27T22:14:15.139Z,12.90
2018-09-27T22:16:43.487Z,12.80
2018-09-27T22:19:11.921Z,12.80
2018-09-27T22:21:40.395Z,12.80
2018-09-27T22:24:08.975Z,12.70
2018-09-27T22:26:37.349Z,12.60
2018-09-27T22:29:06.042Z,12.60
2018-09-27T22:31:34.414Z,12.60
2018-09-27T22:34:02.696Z,12.40
2018-09-27T22:36:31.005Z,12.40
2018-09-27T22:38:59.351Z,12.20
2018-09-27T22:41:27.836Z,12.10
2018-09-27T22:43:56.324Z,12.10
2018-09-27T22:46:24.891Z,12.00
2018-09-27T22:48:53.179Z,12.10
2018-09-27T22:51:21.527Z,12.10
2018-09-27T22:53:50.060Z,12.20
2018-09-27T22:56:18.447Z,12.20
2018-09-27T22:58:47.008Z,12.10
2018-09-27T23:01:15.362Z,12.10
2018-09-27T23:03:43.871Z,11.90
2018-09-27T23:06:12.244Z,11.80
2018-09-27T23:08:40.531Z,11.80
2018-09-27T23:11:09.236Z,11.90
2018-09-27T23:13:37.595Z,11.90
2018-09-27T23:16:05.976Z,11.90
2018-09-27T23:18:34.474Z,11.90
2018-09-27T23:21:02.751Z,11.80
2018-09-27T23:23:31.133Z,11.70
2018-09-27T23:26:01.604Z,11.70
2018-09-27T23:28:30.019Z,11.70
2018-09-27T23:30:58.347Z,11.60
2018-09-27T23:33:27.000Z,11.60
2018-09-27T23:35:55.375Z,11.60
2018-09-27T23:38:23.734Z,11.60
2018-09-27T23:40:52.130Z,11.60
2018-09-27T23:43:20.510Z,11.50
2018-09-27T23:45:49.018Z,11.50
2018-09-27T23:48:18.296Z,11.50
2018-09-27T23:50:46.683Z,11.40
2018-09-27T23:53:15.092Z,11.40
2018-09-27T23:55:43.642Z,11.40
2018-09-27T23:58:12.127Z,11.30
